sensor_id;sensor_type;location;lat;lon;timestamp;pressure;altitude;pressure_sealevel;temperature;humidity
33163;BME280;29282;45.656;11.302;2023-02-26T00:01:29;96477.53;;;19.06;51.68
33163;BME280;29282;45.656;11.302;2023-02-26T00:03:57;96476.72;;;19.06;51.75
33163;BME280;29282;45.656;11.302;2023-02-26T00:06:23;96484.56;;;19.07;51.77
33163;BME280;29282;45.656;11.302;2023-02-26T00:08:49;96483.00;;;19.06;51.79
33163;BME280;29282;45.656;11.302;2023-02-26T00:11:15;96482.63;;;19.04;51.76
33163;BME280;29282;45.656;11.302;2023-02-26T00:13:43;96475.53;;;19.03;51.72
33163;BME280;29282;45.656;11.302;2023-02-26T00:18:50;96482.56;;;19.00;51.71
33163;BME280;29282;45.656;11.302;2023-02-26T00:21:17;96488.88;;;19.01;51.55
33163;BME280;29282;45.656;11.302;2023-02-26T00:23:43;96492.41;;;19.01;51.62
33163;BME280;29282;45.656;11.302;2023-02-26T00:26:09;96481.78;;;19.00;51.73
33163;BME280;29282;45.656;11.302;2023-02-26T00:28:35;96488.06;;;19.00;51.50
33163;BME280;29282;45.656;11.302;2023-02-26T00:31:01;96495.13;;;18.98;51.73
33163;BME280;29282;45.656;11.302;2023-02-26T00:33:26;96497.47;;;18.99;51.51
33163;BME280;29282;45.656;11.302;2023-02-26T00:35:58;96502.19;;;18.99;51.57
33163;BME280;29282;45.656;11.302;2023-02-26T00:38:27;96503.34;;;18.98;51.52
33163;BME280;29282;45.656;11.302;2023-02-26T00:40:54;96503.34;;;18.98;51.61
33163;BME280;29282;45.656;11.302;2023-02-26T00:43:23;96501.75;;;18.97;51.65
33163;BME280;29282;45.656;11.302;2023-02-26T00:45:56;96515.09;;;18.95;51.52
33163;BME280;29282;45.656;11.302;2023-02-26T00:51:20;96523.31;;;18.95;51.56
33163;BME280;29282;45.656;11.302;2023-02-26T00:59:16;96533.50;;;18.94;51.40
33163;BME280;29282;45.656;11.302;2023-02-26T01:01:42;96531.13;;;18.93;51.41
33163;BME280;29282;45.656;11.302;2023-02-26T01:04:09;96530.34;;;18.92;51.28
33163;BME280;29282;45.656;11.302;2023-02-26T01:06:39;96531.53;;;18.91;51.40
33163;BME280;29282;45.656;11.302;2023-02-26T01:09:26;96537.00;;;18.91;51.49
33163;BME280;29282;45.656;11.302;2023-02-26T01:11:53;96546.03;;;18.92;51.42
33163;BME280;29282;45.656;11.302;2023-02-26T01:14:20;96542.50;;;18.91;51.39
33163;BME280;29282;45.656;11.302;2023-02-26T01:17:13;96539.72;;;18.88;51.36
33163;BME280;29282;45.656;11.302;2023-02-26T01:22:46;96540.53;;;18.88;51.32
33163;BME280;29282;45.656;11.302;2023-02-26T01:25:18;96546.38;;;18.87;51.38
33163;BME280;29282;45.656;11.302;2023-02-26T01:27:46;96547.97;;;18.88;51.49
33163;BME280;29282;45.656;11.302;2023-02-26T01:30:12;96549.13;;;18.87;51.25
33163;BME280;29282;45.656;11.302;2023-02-26T01:35:38;96542.06;;;18.86;51.30
33163;BME280;29282;45.656;11.302;2023-02-26T01:38:26;96545.97;;;18.85;51.28
33163;BME280;29282;45.656;11.302;2023-02-26T01:46:22;96529.50;;;18.81;51.17
33163;BME280;29282;45.656;11.302;2023-02-26T01:48:57;96535.75;;;18.82;51.18
33163;BME280;29282;45.656;11.302;2023-02-26T01:51:47;96526.75;;;18.81;51.15
33163;BME280;29282;45.656;11.302;2023-02-26T01:54:14;96545.13;;;18.81;51.34
33163;BME280;29282;45.656;11.302;2023-02-26T01:56:42;96589.09;;;18.84;51.20
33163;BME280;29282;45.656;11.302;2023-02-26T01:59:10;96615.69;;;18.80;51.28
33163;BME280;29282;45.656;11.302;2023-02-26T02:01:38;96624.72;;;18.81;51.27
33163;BME280;29282;45.656;11.302;2023-02-26T02:04:09;96634.50;;;18.78;51.06
33163;BME280;29282;45.656;11.302;2023-02-26T02:06:35;96635.28;;;18.78;51.24
33163;BME280;29282;45.656;11.302;2023-02-26T02:09:04;96637.59;;;18.76;51.14
33163;BME280;29282;45.656;11.302;2023-02-26T02:11:30;96637.59;;;18.76;51.11
33163;BME280;29282;45.656;11.302;2023-02-26T02:14:20;96645.84;;;18.76;50.99
33163;BME280;29282;45.656;11.302;2023-02-26T02:19:42;96680.72;;;18.76;50.96
33163;BME280;29282;45.656;11.302;2023-02-26T02:30:31;96698.28;;;18.71;50.98
33163;BME280;29282;45.656;11.302;2023-02-26T02:33:14;96709.25;;;18.71;50.88
33163;BME280;29282;45.656;11.302;2023-02-26T02:35:45;96720.22;;;18.71;50.96
33163;BME280;29282;45.656;11.302;2023-02-26T02:38:18;96715.88;;;18.70;50.85
33163;BME280;29282;45.656;11.302;2023-02-26T02:40:50;96712.75;;;18.68;50.94
33163;BME280;29282;45.656;11.302;2023-02-26T02:43:21;96711.97;;;18.68;50.71
33163;BME280;29282;45.656;11.302;2023-02-26T02:46:02;96719.38;;;18.67;50.83
33163;BME280;29282;45.656;11.302;2023-02-26T02:48:37;96726.81;;;18.67;50.71
33163;BME280;29282;45.656;11.302;2023-02-26T02:51:09;96746.03;;;18.67;50.60
33163;BME280;29282;45.656;11.302;2023-02-26T02:53:42;96746.81;;;18.67;50.70
33163;BME280;29282;45.656;11.302;2023-02-26T02:56:22;96764.44;;;18.66;50.78
33163;BME280;29282;45.656;11.302;2023-02-26T03:01:34;96771.88;;;18.66;50.58
33163;BME280;29282;45.656;11.302;2023-02-26T03:04:08;96767.56;;;18.65;50.68
33163;BME280;29282;45.656;11.302;2023-02-26T03:06:36;96784.38;;;18.63;50.58
33163;BME280;29282;45.656;11.302;2023-02-26T03:09:02;96780.06;;;18.62;50.60
33163;BME280;29282;45.656;11.302;2023-02-26T03:11:30;96781.63;;;18.63;50.52
33163;BME280;29282;45.656;11.302;2023-02-26T03:13:56;96793.41;;;18.64;50.49
33163;BME280;29282;45.656;11.302;2023-02-26T03:19:23;96786.34;;;18.63;50.46
33163;BME280;29282;45.656;11.302;2023-02-26T03:22:11;96794.63;;;18.66;50.40
33163;BME280;29282;45.656;11.302;2023-02-26T03:24:50;96811.06;;;18.66;50.20
33163;BME280;29282;45.656;11.302;2023-02-26T03:27:25;96804.41;;;18.67;50.09
33163;BME280;29282;45.656;11.302;2023-02-26T03:29:58;96814.59;;;18.67;50.18
33163;BME280;29282;45.656;11.302;2023-02-26T03:38:03;96798.16;;;18.67;50.07
33163;BME280;29282;45.656;11.302;2023-02-26T03:40:42;96798.16;;;18.67;50.09
33163;BME280;29282;45.656;11.302;2023-02-26T03:44:04;96804.03;;;18.65;50.13
33163;BME280;29282;45.656;11.302;2023-02-26T03:46:07;96803.63;;;18.67;50.03
33163;BME280;29282;45.656;11.302;2023-02-26T03:48:34;96798.94;;;18.67;49.98
33163;BME280;29282;45.656;11.302;2023-02-26T03:51:06;96800.09;;;18.66;49.99
33163;BME280;29282;45.656;11.302;2023-02-26T03:53:38;96797.75;;;18.65;50.09
33163;BME280;29282;45.656;11.302;2023-02-26T03:56:22;96805.59;;;18.66;50.05
33163;BME280;29282;45.656;11.302;2023-02-26T03:58:50;96808.75;;;18.68;49.95
33163;BME280;29282;45.656;11.302;2023-02-26T04:01:21;96799.75;;;18.68;49.97
33163;BME280;29282;45.656;11.302;2023-02-26T04:04:01;96791.09;;;18.66;49.85
33163;BME280;29282;45.656;11.302;2023-02-26T04:06:28;96802.84;;;18.66;49.81
33163;BME280;29282;45.656;11.302;2023-02-26T04:08:54;96795.78;;;18.65;49.83
33163;BME280;29282;45.656;11.302;2023-02-26T04:11:21;96800.50;;;18.65;49.86
33163;BME280;29282;45.656;11.302;2023-02-26T04:13:47;96811.06;;;18.66;49.79
33163;BME280;29282;45.656;11.302;2023-02-26T04:16:15;96816.56;;;18.66;49.75
33163;BME280;29282;45.656;11.302;2023-02-26T04:18:41;96811.47;;;18.65;49.73
33163;BME280;29282;45.656;11.302;2023-02-26T04:21:10;96810.25;;;18.62;49.81
33163;BME280;29282;45.656;11.302;2023-02-26T04:23:36;96816.16;;;18.64;49.87
33163;BME280;29282;45.656;11.302;2023-02-26T04:26:01;96815.34;;;18.64;49.77
33163;BME280;29282;45.656;11.302;2023-02-26T04:28:27;96812.25;;;18.65;49.67
33163;BME280;29282;45.656;11.302;2023-02-26T04:30:54;96823.56;;;18.64;49.83
33163;BME280;29282;45.656;11.302;2023-02-26T04:33:19;96829.50;;;18.66;49.59
33163;BME280;29282;45.656;11.302;2023-02-26T04:35:45;96814.22;;;18.65;49.60
33163;BME280;29282;45.656;11.302;2023-02-26T04:38:10;96805.94;;;18.61;49.83
33163;BME280;29282;45.656;11.302;2023-02-26T04:40:36;96818.47;;;18.62;49.52
33163;BME280;29282;45.656;11.302;2023-02-26T04:43:01;96821.22;;;18.62;49.75
33163;BME280;29282;45.656;11.302;2023-02-26T04:45:27;96821.22;;;18.62;49.60
33163;BME280;29282;45.656;11.302;2023-02-26T04:47:52;96815.34;;;18.64;49.55
33163;BME280;29282;45.656;11.302;2023-02-26T04:50:18;96811.81;;;18.63;49.53
33163;BME280;29282;45.656;11.302;2023-02-26T04:52:43;96824.75;;;18.63;49.50
33163;BME280;29282;45.656;11.302;2023-02-26T04:55:09;96823.97;;;18.62;49.62
33163;BME280;29282;45.656;11.302;2023-02-26T04:57:34;96823.97;;;18.62;49.54
33163;BME280;29282;45.656;11.302;2023-02-26T05:00:00;96804.75;;;18.62;49.35
33163;BME280;29282;45.656;11.302;2023-02-26T05:02:25;96813.78;;;18.63;49.62
33163;BME280;29282;45.656;11.302;2023-02-26T05:04:51;96823.97;;;18.62;49.40
33163;BME280;29282;45.656;11.302;2023-02-26T05:07:16;96814.94;;;18.62;49.39
33163;BME280;29282;45.656;11.302;2023-02-26T05:09:42;96820.78;;;18.60;49.44
33163;BME280;29282;45.656;11.302;2023-02-26T05:12:07;96804.31;;;18.60;49.36
33163;BME280;29282;45.656;11.302;2023-02-26T05:14:33;96800.81;;;18.60;49.39
33163;BME280;29282;45.656;11.302;2023-02-26T05:16:58;96809.47;;;18.62;49.26
33163;BME280;29282;45.656;11.302;2023-02-26T05:19:24;96814.50;;;18.60;49.41
33163;BME280;29282;45.656;11.302;2023-02-26T05:21:49;96790.63;;;18.60;49.28
33163;BME280;29282;45.656;11.302;2023-02-26T05:24:15;96795.31;;;18.60;49.30
33163;BME280;29282;45.656;11.302;2023-02-26T05:26:41;96791.41;;;18.61;49.39
33163;BME280;29282;45.656;11.302;2023-02-26T05:29:06;96786.31;;;18.59;49.35
33163;BME280;29282;45.656;11.302;2023-02-26T05:31:32;96772.59;;;18.59;49.21
33163;BME280;29282;45.656;11.302;2023-02-26T05:33:57;96779.63;;;18.60;49.15
33163;BME280;29282;45.656;11.302;2023-02-26T05:36:23;96781.59;;;18.60;49.28
33163;BME280;29282;45.656;11.302;2023-02-26T05:38:48;96783.56;;;18.59;49.23
33163;BME280;29282;45.656;11.302;2023-02-26T05:41:14;96781.59;;;18.60;49.15
33163;BME280;29282;45.656;11.302;2023-02-26T05:43:39;96783.16;;;18.61;49.04
33163;BME280;29282;45.656;11.302;2023-02-26T05:46:06;96781.59;;;18.60;48.93
33163;BME280;29282;45.656;11.302;2023-02-26T05:48:31;96784.34;;;18.60;49.15
33163;BME280;29282;45.656;11.302;2023-02-26T05:50:57;96792.56;;;18.60;49.03
33163;BME280;29282;45.656;11.302;2023-02-26T05:53:22;96794.16;;;18.61;49.05
33163;BME280;29282;45.656;11.302;2023-02-26T05:55:48;96789.47;;;18.61;48.99
33163;BME280;29282;45.656;11.302;2023-02-26T05:58:14;96791.78;;;18.59;49.09
33163;BME280;29282;45.656;11.302;2023-02-26T06:00:40;96788.63;;;18.57;49.06
33163;BME280;29282;45.656;11.302;2023-02-26T06:03:06;96792.97;;;18.58;48.94
33163;BME280;29282;45.656;11.302;2023-02-26T06:05:31;96781.56;;;18.56;49.05
33163;BME280;29282;45.656;11.302;2023-02-26T06:07:57;96801.53;;;18.57;48.95
33163;BME280;29282;45.656;11.302;2023-02-26T06:10:22;96804.28;;;18.57;48.97
33163;BME280;29282;45.656;11.302;2023-02-26T06:12:48;96813.69;;;18.55;48.96
33163;BME280;29282;45.656;11.302;2023-02-26T06:15:13;96822.34;;;18.58;49.07
33163;BME280;29282;45.656;11.302;2023-02-26T06:17:39;96833.66;;;18.56;49.01
33163;BME280;29282;45.656;11.302;2023-02-26T06:20:05;96840.72;;;18.57;48.85
33163;BME280;29282;45.656;11.302;2023-02-26T06:22:31;96845.84;;;18.59;48.96
33163;BME280;29282;45.656;11.302;2023-02-26T06:24:57;96846.22;;;18.57;48.75
33163;BME280;29282;45.656;11.302;2023-02-26T06:27:23;96848.56;;;18.55;48.90
33163;BME280;29282;45.656;11.302;2023-02-26T06:29:49;96841.91;;;18.56;48.94
33163;BME280;29282;45.656;11.302;2023-02-26T06:32:14;96847.03;;;18.58;48.54
33163;BME280;29282;45.656;11.302;2023-02-26T06:34:40;96859.53;;;16.31;46.13
33163;BME280;29282;45.656;11.302;2023-02-26T06:37:05;96869.88;;;11.99;51.96
33163;BME280;29282;45.656;11.302;2023-02-26T06:39:31;96855.81;;;14.63;46.22
33163;BME280;29282;45.656;11.302;2023-02-26T06:41:57;96857.41;;;16.24;43.29
33163;BME280;29282;45.656;11.302;2023-02-26T06:44:23;96865.25;;;17.12;42.07
33163;BME280;29282;45.656;11.302;2023-02-26T06:46:48;96854.75;;;17.56;41.89
33163;BME280;29282;45.656;11.302;2023-02-26T06:49:14;96880.28;;;17.83;41.69
33163;BME280;29282;45.656;11.302;2023-02-26T06:51:40;96886.44;;;18.00;41.77
33163;BME280;29282;45.656;11.302;2023-02-26T06:54:05;96899.25;;;18.15;41.78
33163;BME280;29282;45.656;11.302;2023-02-26T06:56:31;96902.16;;;18.26;41.73
33163;BME280;29282;45.656;11.302;2023-02-26T06:58:57;96908.53;;;18.34;41.84
33163;BME280;29282;45.656;11.302;2023-02-26T07:01:22;96919.63;;;18.41;42.24
33163;BME280;29282;45.656;11.302;2023-02-26T07:03:49;96919.69;;;18.44;42.40
33163;BME280;29282;45.656;11.302;2023-02-26T07:06:15;96923.28;;;18.48;42.35
33163;BME280;29282;45.656;11.302;2023-02-26T07:08:40;96934.38;;;18.55;42.60
33163;BME280;29282;45.656;11.302;2023-02-26T07:11:06;96922.22;;;18.57;42.59
33163;BME280;29282;45.656;11.302;2023-02-26T07:13:35;96928.88;;;18.55;43.26
33163;BME280;29282;45.656;11.302;2023-02-26T07:16:02;96928.56;;;18.61;42.90
33163;BME280;29282;45.656;11.302;2023-02-26T07:18:27;96937.59;;;18.61;43.32
33163;BME280;29282;45.656;11.302;2023-02-26T07:20:53;96951.72;;;18.63;43.26
33163;BME280;29282;45.656;11.302;2023-02-26T07:23:18;96947.03;;;18.64;43.51
33163;BME280;29282;45.656;11.302;2023-02-26T07:25:44;96958.81;;;18.64;43.67
33163;BME280;29282;45.656;11.302;2023-02-26T07:28:09;96969.78;;;18.64;43.93
33163;BME280;29282;45.656;11.302;2023-02-26T07:30:35;96970.19;;;18.66;43.84
33163;BME280;29282;45.656;11.302;2023-02-26T07:33:00;96972.56;;;18.68;43.87
33163;BME280;29282;45.656;11.302;2023-02-26T07:35:26;96973.78;;;18.70;44.01
33163;BME280;29282;45.656;11.302;2023-02-26T07:37:51;96974.25;;;18.72;44.04
33163;BME280;29282;45.656;11.302;2023-02-26T07:40:17;96971.03;;;18.70;44.15
33163;BME280;29282;45.656;11.302;2023-02-26T07:42:43;96963.31;;;18.76;44.44
33163;BME280;29282;45.656;11.302;2023-02-26T07:45:09;96970.97;;;18.90;44.35
33163;BME280;29282;45.656;11.302;2023-02-26T07:47:36;96970.03;;;19.05;43.71
33163;BME280;29282;45.656;11.302;2023-02-26T07:50:01;96972.13;;;19.15;43.83
33163;BME280;29282;45.656;11.302;2023-02-26T07:52:27;96959.28;;;19.23;43.81
33163;BME280;29282;45.656;11.302;2023-02-26T07:54:53;96962.13;;;19.30;43.78
33163;BME280;29282;45.656;11.302;2023-02-26T07:57:19;96966.91;;;19.37;43.74
33163;BME280;29282;45.656;11.302;2023-02-26T07:59:44;96980.38;;;19.45;43.45
33163;BME280;29282;45.656;11.302;2023-02-26T08:02:11;96979.25;;;19.50;43.32
33163;BME280;29282;45.656;11.302;2023-02-26T08:04:37;96986.34;;;19.51;43.62
33163;BME280;29282;45.656;11.302;2023-02-26T08:07:03;96975.75;;;19.53;43.65
33163;BME280;29282;45.656;11.302;2023-02-26T08:09:29;96987.22;;;19.59;43.56
33163;BME280;29282;45.656;11.302;2023-02-26T08:11:55;96995.97;;;19.64;43.67
33163;BME280;29282;45.656;11.302;2023-02-26T08:14:21;97006.09;;;19.60;43.70
33163;BME280;29282;45.656;11.302;2023-02-26T08:16:47;96988.84;;;19.63;43.72
33163;BME280;29282;45.656;11.302;2023-02-26T08:19:13;96992.47;;;19.67;43.71
33163;BME280;29282;45.656;11.302;2023-02-26T08:21:38;96996.81;;;19.72;43.71
33163;BME280;29282;45.656;11.302;2023-02-26T08:24:04;97010.22;;;19.74;43.65
33163;BME280;29282;45.656;11.302;2023-02-26T08:26:30;97003.53;;;19.75;43.72
33163;BME280;29282;45.656;11.302;2023-02-26T08:28:55;97007.84;;;19.76;43.64
33163;BME280;29282;45.656;11.302;2023-02-26T08:31:21;97011.75;;;19.71;43.97
33163;BME280;29282;45.656;11.302;2023-02-26T08:33:47;97017.59;;;19.69;43.77
33163;BME280;29282;45.656;11.302;2023-02-26T08:36:13;97014.47;;;19.71;44.10
33163;BME280;29282;45.656;11.302;2023-02-26T08:38:39;97010.59;;;19.76;43.93
33163;BME280;29282;45.656;11.302;2023-02-26T08:41:04;97024.00;;;19.77;43.92
33163;BME280;29282;45.656;11.302;2023-02-26T08:43:30;97021.28;;;19.81;43.92
33163;BME280;29282;45.656;11.302;2023-02-26T08:45:56;97013.78;;;19.78;44.01
33163;BME280;29282;45.656;11.302;2023-02-26T08:48:23;97017.78;;;19.84;43.94
33163;BME280;29282;45.656;11.302;2023-02-26T08:50:49;97017.41;;;19.85;44.06
33163;BME280;29282;45.656;11.302;2023-02-26T08:53:15;97007.63;;;19.88;43.87
33163;BME280;29282;45.656;11.302;2023-02-26T08:55:41;97012.69;;;19.86;43.86
33163;BME280;29282;45.656;11.302;2023-02-26T08:58:09;97020.56;;;19.87;43.94
33163;BME280;29282;45.656;11.302;2023-02-26T09:00:35;97025.66;;;19.85;44.05
33163;BME280;29282;45.656;11.302;2023-02-26T09:03:00;97026.81;;;19.84;43.96
33163;BME280;29282;45.656;11.302;2023-02-26T09:05:26;97025.66;;;19.85;44.00
33163;BME280;29282;45.656;11.302;2023-02-26T09:08:05;97032.34;;;19.88;44.00
33163;BME280;29282;45.656;11.302;2023-02-26T09:10:31;97038.72;;;19.95;43.84
33163;BME280;29282;45.656;11.302;2023-02-26T09:12:57;97041.94;;;20.01;43.81
33163;BME280;29282;45.656;11.302;2023-02-26T09:15:22;97036.16;;;20.10;43.68
33163;BME280;29282;45.656;11.302;2023-02-26T09:17:48;97036.22;;;20.17;43.57
33163;BME280;29282;45.656;11.302;2023-02-26T09:20:15;97028.41;;;20.23;43.55
33163;BME280;29282;45.656;11.302;2023-02-26T09:22:40;97049.59;;;20.18;43.90
33163;BME280;29282;45.656;11.302;2023-02-26T09:25:06;97055.16;;;20.26;43.80
33163;BME280;29282;45.656;11.302;2023-02-26T09:27:32;97047.66;;;20.23;43.80
33163;BME280;29282;45.656;11.302;2023-02-26T09:29:59;97045.72;;;20.23;44.03
33163;BME280;29282;45.656;11.302;2023-02-26T09:32:25;97055.88;;;20.19;44.22
33163;BME280;29282;45.656;11.302;2023-02-26T09:34:51;97065.34;;;20.22;44.28
33163;BME280;29282;45.656;11.302;2023-02-26T09:37:17;97060.59;;;20.18;44.54
33163;BME280;29282;45.656;11.302;2023-02-26T09:39:43;97066.09;;;20.18;44.44
33163;BME280;29282;45.656;11.302;2023-02-26T09:44:59;97075.13;;;20.19;44.83
33163;BME280;29282;45.656;11.302;2023-02-26T09:47:36;97074.75;;;20.21;44.95
33163;BME280;29282;45.656;11.302;2023-02-26T09:50:22;97088.84;;;20.15;44.90
33163;BME280;29282;45.656;11.302;2023-02-26T09:55:34;97084.09;;;20.12;45.26
33163;BME280;29282;45.656;11.302;2023-02-26T09:58:08;97084.47;;;20.11;45.24
33163;BME280;29282;45.656;11.302;2023-02-26T10:08:16;97085.66;;;20.10;45.55
33163;BME280;29282;45.656;11.302;2023-02-26T10:10:49;97086.78;;;20.09;45.66
33163;BME280;29282;45.656;11.302;2023-02-26T10:13:36;97084.84;;;20.09;45.79
33163;BME280;29282;45.656;11.302;2023-02-26T10:16:10;97084.03;;;20.09;45.77
33163;BME280;29282;45.656;11.302;2023-02-26T10:18:46;97084.84;;;20.09;45.80
33163;BME280;29282;45.656;11.302;2023-02-26T10:21:26;97089.94;;;20.07;45.59
33163;BME280;29282;45.656;11.302;2023-02-26T10:23:56;97090.72;;;20.08;45.56
33163;BME280;29282;45.656;11.302;2023-02-26T10:26:32;97090.34;;;20.09;45.34
33163;BME280;29282;45.656;11.302;2023-02-26T10:32:16;97100.63;;;20.16;45.21
33163;BME280;29282;45.656;11.302;2023-02-26T10:34:53;97103.00;;;20.17;45.23
33163;BME280;29282;45.656;11.302;2023-02-26T10:50:46;97103.81;;;20.18;45.54
33163;BME280;29282;45.656;11.302;2023-02-26T10:53:12;97099.09;;;20.18;45.60
33163;BME280;29282;45.656;11.302;2023-02-26T10:55:46;97102.28;;;20.21;45.78
33163;BME280;29282;45.656;11.302;2023-02-26T10:58:15;97102.28;;;20.21;45.70
33163;BME280;29282;45.656;11.302;2023-02-26T11:00:44;97095.59;;;20.22;45.61
33163;BME280;29282;45.656;11.302;2023-02-26T11:03:31;97099.53;;;20.21;45.73
33163;BME280;29282;45.656;11.302;2023-02-26T11:05:59;97104.22;;;20.20;45.87
33163;BME280;29282;45.656;11.302;2023-02-26T11:08:48;97111.72;;;20.23;45.82
33163;BME280;29282;45.656;11.302;2023-02-26T11:11:55;97094.81;;;20.21;45.88
33163;BME280;29282;45.656;11.302;2023-02-26T11:14:22;97098.34;;;20.22;45.77
33163;BME280;29282;45.656;11.302;2023-02-26T11:16:55;97097.16;;;20.23;45.79
33163;BME280;29282;45.656;11.302;2023-02-26T11:19:30;97099.56;;;20.24;45.83
33163;BME280;29282;45.656;11.302;2023-02-26T11:21:58;97102.28;;;20.21;45.96
33163;BME280;29282;45.656;11.302;2023-02-26T11:24:28;97105.41;;;20.23;45.92
33163;BME280;29282;45.656;11.302;2023-02-26T11:26:56;97105.84;;;20.25;45.86
33163;BME280;29282;45.656;11.302;2023-02-26T11:29:24;97103.88;;;20.25;46.00
33163;BME280;29282;45.656;11.302;2023-02-26T11:31:51;97100.34;;;20.25;45.92
33163;BME280;29282;45.656;11.302;2023-02-26T11:34:21;97092.47;;;20.23;46.09
33163;BME280;29282;45.656;11.302;2023-02-26T11:36:48;97109.38;;;20.25;46.04
33163;BME280;29282;45.656;11.302;2023-02-26T11:39:21;97103.88;;;20.25;45.99
33163;BME280;29282;45.656;11.302;2023-02-26T11:41:49;97104.66;;;20.26;46.13
33163;BME280;29282;45.656;11.302;2023-02-26T11:44:21;97110.16;;;20.26;45.85
33163;BME280;29282;45.656;11.302;2023-02-26T11:46:54;97104.66;;;20.26;46.09
33163;BME280;29282;45.656;11.302;2023-02-26T11:49:23;97106.63;;;20.25;46.24
33163;BME280;29282;45.656;11.302;2023-02-26T11:52:05;97118.03;;;20.24;46.10
33163;BME280;29282;45.656;11.302;2023-02-26T11:54:34;97118.03;;;20.24;45.89
33163;BME280;29282;45.656;11.302;2023-02-26T11:57:04;97105.06;;;20.24;45.99
33163;BME280;29282;45.656;11.302;2023-02-26T11:59:31;97102.31;;;20.24;46.25
33163;BME280;29282;45.656;11.302;2023-02-26T12:02:02;97107.81;;;20.24;46.29
33163;BME280;29282;45.656;11.302;2023-02-26T12:04:30;97116.84;;;20.25;46.28
33163;BME280;29282;45.656;11.302;2023-02-26T12:06:56;97113.72;;;20.26;46.16
33163;BME280;29282;45.656;11.302;2023-02-26T12:09:24;97105.06;;;20.24;46.15
33163;BME280;29282;45.656;11.302;2023-02-26T12:20:31;97119.59;;;20.25;46.28
33163;BME280;29282;45.656;11.302;2023-02-26T12:42:27;97121.97;;;20.26;46.32
33163;BME280;29282;45.656;11.302;2023-02-26T12:45:25;97120.03;;;20.27;46.26
33163;BME280;29282;45.656;11.302;2023-02-26T13:02:02;97136.53;;;20.27;46.39
33163;BME280;29282;45.656;11.302;2023-02-26T13:16:02;97143.91;;;20.23;46.49
33163;BME280;29282;45.656;11.302;2023-02-26T13:21:06;97134.56;;;20.27;46.48
33163;BME280;29282;45.656;11.302;2023-02-26T13:23:41;97132.97;;;20.26;46.43
33163;BME280;29282;45.656;11.302;2023-02-26T13:26:11;97144.81;;;20.30;46.17
33163;BME280;29282;45.656;11.302;2023-02-26T13:33:48;97148.13;;;20.43;45.61
33163;BME280;29282;45.656;11.302;2023-02-26T13:36:15;97156.38;;;20.43;45.56
33163;BME280;29282;45.656;11.302;2023-02-26T13:47:32;97185.47;;;20.44;45.02
33163;BME280;29282;45.656;11.302;2023-02-26T13:50:13;97176.41;;;20.44;45.40
33163;BME280;29282;45.656;11.302;2023-02-26T13:52:50;97180.31;;;20.42;45.31
33163;BME280;29282;45.656;11.302;2023-02-26T13:55:40;97188.97;;;20.41;45.43
33163;BME280;29282;45.656;11.302;2023-02-26T14:01:13;97183.88;;;20.43;45.63
33163;BME280;29282;45.656;11.302;2023-02-26T14:04:05;97180.28;;;20.39;45.65
33163;BME280;29282;45.656;11.302;2023-02-26T14:09:29;97190.50;;;20.38;45.62
33163;BME280;29282;45.656;11.302;2023-02-26T14:12:02;97191.72;;;20.41;45.38
33163;BME280;29282;45.656;11.302;2023-02-26T14:14:42;97199.97;;;20.41;45.24
33163;BME280;29282;45.656;11.302;2023-02-26T14:24:59;97220.75;;;20.38;45.45
33163;BME280;29282;45.656;11.302;2023-02-26T14:27:40;97217.59;;;20.36;45.68
33163;BME280;29282;45.656;11.302;2023-02-26T14:32:47;97224.25;;;20.35;45.56
33163;BME280;29282;45.656;11.302;2023-02-26T14:35:37;97230.53;;;20.36;45.60
33163;BME280;29282;45.656;11.302;2023-02-26T14:38:27;97223.47;;;20.35;45.51
33163;BME280;29282;45.656;11.302;2023-02-26T14:41:04;97228.97;;;20.35;45.45
33163;BME280;29282;45.656;11.302;2023-02-26T14:43:43;97234.47;;;20.35;45.47
33163;BME280;29282;45.656;11.302;2023-02-26T14:46:10;97240.41;;;20.37;45.43
33163;BME280;29282;45.656;11.302;2023-02-26T14:48:37;97247.47;;;20.38;45.62
33163;BME280;29282;45.656;11.302;2023-02-26T15:02:16;97265.16;;;20.37;44.87
33163;BME280;29282;45.656;11.302;2023-02-26T15:08:12;97272.63;;;20.36;44.74
33163;BME280;29282;45.656;11.302;2023-02-26T15:21:34;97296.56;;;20.36;44.75
33163;BME280;29282;45.656;11.302;2023-02-26T15:24:04;97305.97;;;20.35;44.80
33163;BME280;29282;45.656;11.302;2023-02-26T15:26:34;97309.16;;;20.37;44.59
33163;BME280;29282;45.656;11.302;2023-02-26T15:29:04;97320.16;;;20.37;44.78
33163;BME280;29282;45.656;11.302;2023-02-26T15:31:34;97322.53;;;20.38;44.75
33163;BME280;29282;45.656;11.302;2023-02-26T15:34:01;97320.97;;;20.37;44.84
33163;BME280;29282;45.656;11.302;2023-02-26T15:36:29;97329.63;;;20.39;44.80
33163;BME280;29282;45.656;11.302;2023-02-26T15:39:00;97326.06;;;20.39;44.96
33163;BME280;29282;45.656;11.302;2023-02-26T15:41:29;97335.50;;;20.38;44.92
33163;BME280;29282;45.656;11.302;2023-02-26T15:44:02;97341.44;;;20.40;44.91
33163;BME280;29282;45.656;11.302;2023-02-26T15:46:37;97349.31;;;20.41;44.94
33163;BME280;29282;45.656;11.302;2023-02-26T15:49:07;97343.03;;;20.41;44.83
33163;BME280;29282;45.656;11.302;2023-02-26T15:51:35;97356.00;;;20.40;44.88
33163;BME280;29282;45.656;11.302;2023-02-26T15:54:01;97350.84;;;20.39;44.99
33163;BME280;29282;45.656;11.302;2023-02-26T15:56:30;97359.88;;;20.39;44.91
33163;BME280;29282;45.656;11.302;2023-02-26T15:59:02;97367.78;;;20.41;44.84
33163;BME280;29282;45.656;11.302;2023-02-26T16:01:30;97366.19;;;20.40;45.12
33163;BME280;29282;45.656;11.302;2023-02-26T16:03:59;97370.09;;;20.39;45.06
33163;BME280;29282;45.656;11.302;2023-02-26T16:06:35;97363.81;;;20.38;45.18
33163;BME280;29282;45.656;11.302;2023-02-26T16:09:01;97378.34;;;20.39;45.11